Aviation Digital Data Service (ADDS)

Output produced by METARs form (1543 UTC 17 November 2019)
found at http://aviationweather.gov/metar/data/
 
METAR text: KDKB 171535Z AUTO 17010KT 7SM BKN110 00/M01 A3001 RMK AO2 T00011009
Conditions at: KDKB (DE KALB , IL, US) observed 1535 UTC 17 November 2019
Temperature: 0.1°C (32°F)
Dewpoint: -0.9°C (30°F) [RH = 93%]
Pressure (altimeter): 30.01 inches Hg (1016.3 mb)
Winds: from the S (170 degrees) at 12 MPH (10 knots; 5.1 m/s)
Visibility: 7 miles (11 km)
Ceiling: 11000 feet AGL
Clouds: broken clouds at 11000 feet AGL
Weather: automated observation with no human augmentation;
there may or may not be significant weather present at this time